This is the latest recevied weather packets stored in our database for station/object GOLDWX. If no packets are shown the sender has not sent any weather packets the latest 10 day(s).
| Time | Temp. | Humidity | Pressure | Rain* | Wind** | Luminosity | Snow |
|---|---|---|---|---|---|---|---|
| 1778160155 | 10.56° C | 45% | 1019.3 hPa | 0 mm | - | - | - |
| 1778159553 | 10.56° C | 44% | 1019.2 hPa | 0 mm | - | - | - |
| 1778159254 | 10.56° C | 45% | 1019.2 hPa | 0 mm | - | - | - |
| 1778158652 | 10° C | 46% | 1019.1 hPa | 0 mm | - | - | - |
| 1778158350 | 9.44° C | 47% | 1019.1 hPa | 0 mm | - | - | - |
| 1778157748 | 9.44° C | 48% | 1019.1 hPa | 0 mm | - | - | - |
| 1778157448 | 9.44° C | 49% | 1019.2 hPa | 0 mm | - | - | - |
| 1778156846 | 9.44° C | 48% | 1019.2 hPa | 0 mm | - | - | - |
| 1778156545 | 9.44° C | 48% | 1019.2 hPa | 0 mm | - | - | - |
| 1778155943 | 8.89° C | 49% | 1019.2 hPa | 0 mm | - | - | - |
| 1778155041 | 10.56° C | 45% | 1019.1 hPa | 0 mm | - | - | - |
| 1778154740 | 11.11° C | 44% | 1019 hPa | 0 mm | - | - | - |
| 1778154138 | 11.67° C | 41% | 1019.1 hPa | 0 mm | - | - | - |
| 1778153236 | 11.67° C | 41% | 1018.8 hPa | 0 mm | - | - | - |
| 1778152935 | 11.67° C | 41% | 1018.8 hPa | 0 mm | - | - | - |
| 1778152333 | 11.67° C | 42% | 1018.9 hPa | 0 mm | - | - | - |
| 1778151732 | 11.67° C | 42% | 1018.9 hPa | 0 mm | - | - | - |
| 1778151130 | 11.67° C | 43% | 1018.9 hPa | 0 mm | - | - | - |
| 1778150528 | 11.11° C | 44% | 1019.1 hPa | 0 mm | - | - | - |
| 1778150229 | 11.11° C | 44% | 1019.1 hPa | 0 mm | - | - | - |
| 1778149625 | 10.56° C | 46% | 1019.2 hPa | 0 mm | - | - | - |
| 1778149324 | 11.11° C | 45% | 1019.1 hPa | 0 mm | - | - | - |
| 1778148722 | 11.11° C | 45% | 1019.2 hPa | 0 mm | - | - | - |
| 1778148421 | 11.11° C | 45% | 1019.1 hPa | 0 mm | - | - | - |
| 1778147820 | 11.11° C | 45% | 1019.3 hPa | 0 mm | - | - | - |
* Rain since midnight (hover to see other rain measurements)
** Current wind speed in m/s (hover to see current wind gust speed)